Time;durP1;ratioP1;P1;durP2;ratioP2;P2;SDS_P1;SDS_P2;PMS_P1;PMS_P2;Temp;Humidity;BMP_temperature;BMP_pressure;BME280_temperature;BME280_humidity;BME280_pressure;Samples;Min_cycle;Max_cycle;Signal;HPM_P1;HPM_P2
2021/05/08 00:02:00;;;;;;;5.43;3.63;;;;;;;6.45;66.45;98473.77;128228;1104;22758;-78
2021/05/08 00:04:26;;;;;;;5.90;3.88;;;;;;;6.40;66.33;98469.23;127628;1104;114857;-79
2021/05/08 00:06:52;;;;;;;6.70;3.63;;;;;;;6.36;65.95;98477.02;127410;1100;115609;-79
2021/05/08 00:09:18;;;;;;;6.98;4.05;;;;;;;6.31;65.92;98478.94;127558;1104;115062;-78
2021/05/08 00:11:45;;;;;;;5.68;3.63;;;;;;;6.24;66.10;98473.11;127512;1100;115680;-78
2021/05/08 00:14:11;;;;;;;6.23;3.80;;;;;;;6.21;66.51;98479.83;128309;1099;22779;-78
2021/05/08 00:16:37;;;;;;;5.60;3.60;;;;;;;6.17;66.49;98492.16;127593;1104;114521;-79
2021/05/08 00:19:04;;;;;;;6.70;3.95;;;;;;;6.12;66.45;98482.27;127530;1104;115316;-79
2021/05/08 00:21:31;;;;;;;6.43;4.60;;;;;;;6.11;67.32;98486.02;127472;1104;115529;-79
2021/05/08 00:23:57;;;;;;;6.05;3.50;;;;;;;6.13;67.65;98497.25;127527;1104;116537;-79
2021/05/08 00:26:23;;;;;;;6.25;3.55;;;;;;;6.17;67.05;98494.83;127534;1104;115559;-79
2021/05/08 00:28:51;;;;;;;5.63;3.45;;;;;;;6.21;67.07;98505.73;128329;1104;22740;-79
2021/05/08 00:31:17;;;;;;;6.38;4.00;;;;;;;6.19;66.72;98495.33;127582;1104;115520;-78
2021/05/08 00:33:42;;;;;;;6.40;3.70;;;;;;;6.18;66.65;98495.63;127589;1104;116051;-78
2021/05/08 00:36:09;;;;;;;5.98;3.70;;;;;;;6.14;65.98;98496.17;127497;1105;115224;-78
2021/05/08 00:38:35;;;;;;;8.03;3.58;;;;;;;6.12;66.08;98505.53;127505;1104;115350;-78
2021/05/08 00:41:01;;;;;;;4.20;2.83;;;;;;;6.09;65.84;98503.41;128251;1100;22767;-78
2021/05/08 00:43:27;;;;;;;3.95;2.60;;;;;;;6.05;65.75;98511.20;127572;1104;115042;-78
2021/05/08 00:45:53;;;;;;;5.03;3.13;;;;;;;6.01;65.84;98510.16;127496;1104;116009;-79
2021/05/08 00:48:19;;;;;;;5.43;3.48;;;;;;;5.96;65.57;98514.71;127574;1104;115028;-80
2021/05/08 00:50:45;;;;;;;6.13;3.58;;;;;;;5.91;66.42;98524.33;127544;1104;115320;-79
2021/05/08 00:53:11;;;;;;;5.95;3.35;;;;;;;5.87;65.93;98517.14;128250;1107;22802;-79
2021/05/08 00:55:38;;;;;;;6.05;3.38;;;;;;;5.80;66.46;98516.63;127525;1105;115339;-79
2021/05/08 00:58:08;;;;;;;5.75;4.10;;;;;;;5.75;66.28;98516.66;127447;1104;115096;-79
2021/05/08 01:00:37;;;;;;;5.68;3.88;;;;;;;5.70;66.62;98524.67;127468;1104;116866;-78
2021/05/08 01:03:06;;;;;;;5.78;4.00;;;;;;;5.65;65.95;98533.52;127539;1104;115865;-80
2021/05/08 01:05:33;;;;;;;7.93;4.75;;;;;;;5.62;66.68;98542.89;127574;1104;115072;-79
2021/05/08 01:08:04;;;;;;;5.73;3.73;;;;;;;5.66;68.08;98549.28;128304;1104;22762;-79
2021/05/08 01:10:31;;;;;;;6.30;3.70;;;;;;;5.69;67.33;98545.25;127648;1104;115031;-79
2021/05/08 01:12:59;;;;;;;6.03;3.75;;;;;;;5.71;67.13;98543.13;127657;1104;115955;-79
2021/05/08 01:15:26;;;;;;;6.10;2.93;;;;;;;5.73;66.64;98532.95;127487;1104;116374;-79
2021/05/08 01:17:54;;;;;;;5.20;3.05;;;;;;;5.72;67.23;98544.71;127429;1105;115894;-79
2021/05/08 01:20:21;;;;;;;7.60;3.75;;;;;;;5.71;66.69;98553.80;128301;1105;22791;-79
2021/05/08 01:22:50;;;;;;;5.80;3.20;;;;;;;5.70;66.73;98549.55;128272;1104;24236;-79
2021/05/08 01:25:23;;;;;;;4.90;2.83;;;;;;;5.64;66.39;98551.41;127442;1105;115475;-79
2021/05/08 01:27:51;;;;;;;6.00;3.28;;;;;;;5.61;66.73;98548.48;127616;1100;115357;-79
2021/05/08 01:30:29;;;;;;;6.45;3.73;;;;;;;5.58;66.47;98557.86;127441;1104;115632;-79
2021/05/08 01:32:56;;;;;;;7.58;3.85;;;;;;;5.54;66.65;98558.65;127614;1104;115112;-79
2021/05/08 01:35:23;;;;;;;7.10;3.60;;;;;;;5.50;66.84;98562.94;128058;1105;115257;-79
2021/05/08 01:37:50;;;;;;;7.10;3.63;;;;;;;5.46;66.89;98564.55;128108;1104;120032;-79
2021/05/08 01:40:17;;;;;;;6.75;3.83;;;;;;;5.41;66.43;98574.17;127479;1105;115234;-79
2021/05/08 01:42:51;;;;;;;5.50;3.58;;;;;;;5.37;66.87;98585.66;127431;1104;115729;-79
2021/05/08 01:45:20;;;;;;;6.13;3.18;;;;;;;5.32;66.29;98583.02;127501;1105;115188;-79
2021/05/08 01:47:47;;;;;;;6.78;3.95;;;;;;;5.27;67.43;98581.16;127517;1105;115399;-80
2021/05/08 01:50:16;;;;;;;7.80;4.60;;;;;;;5.28;67.73;98590.76;128238;1100;22752;-79
2021/05/08 01:52:43;;;;;;;5.88;3.83;;;;;;;5.33;68.84;98596.08;127499;1106;114841;-79
2021/05/08 01:55:14;;;;;;;8.85;3.85;;;;;;;5.35;67.90;98585.95;127406;1105;116483;-79
2021/05/08 01:57:49;;;;;;;6.23;3.60;;;;;;;5.38;67.93;98589.93;127599;1100;115614;-79
2021/05/08 02:00:20;;;;;;;5.50;2.98;;;;;;;5.40;67.69;98585.13;127523;1104;115758;-79
2021/05/08 02:02:47;;;;;;;;;;;;;;;5.39;67.76;98591.55;127652;1104;115664;-79
2021/05/08 02:05:13;;;;;;;6.70;3.23;;;;;;;5.38;66.70;98589.93;128305;1104;21574;-79
2021/05/08 02:07:39;;;;;;;6.88;3.80;;;;;;;5.33;66.97;98593.41;127528;1104;115676;-79
2021/05/08 02:10:08;;;;;;;6.83;3.30;;;;;;;5.31;67.08;98587.56;127574;1104;115516;-79
2021/05/08 02:12:37;;;;;;;4.93;2.98;;;;;;;5.32;66.63;98588.36;127513;1104;115722;-79
2021/05/08 02:15:09;;;;;;;6.15;3.90;;;;;;;5.31;66.50;98597.44;127575;1104;114920;-79
2021/05/08 02:17:36;;;;;;;6.20;3.78;;;;;;;5.30;66.63;98590.48;127507;1104;115499;-79
2021/05/08 02:20:09;;;;;;;6.23;3.68;;;;;;;5.25;67.07;98588.63;128233;1105;22736;-79
2021/05/08 02:22:36;;;;;;;5.80;3.30;;;;;;;5.22;66.50;98597.16;127475;1100;115631;-79
2021/05/08 02:25:04;;;;;;;7.08;3.88;;;;;;;5.18;66.94;98593.42;127474;1105;115170;-79
2021/05/08 02:27:30;;;;;;;6.03;3.55;;;;;;;5.16;66.64;98591.03;127623;1104;115565;-79
2021/05/08 02:29:56;;;;;;;6.80;3.33;;;;;;;5.13;66.83;98583.56;127562;1104;115416;-79
2021/05/08 02:32:22;;;;;;;5.20;3.13;;;;;;;5.10;67.47;98583.30;127835;1106;115478;-79
2021/05/08 02:34:48;;;;;;;6.90;3.60;;;;;;;5.05;66.62;98578.77;128321;1105;22728;-79
2021/05/08 02:37:14;;;;;;;5.75;3.10;;;;;;;5.04;67.31;98587.84;127481;1105;114904;-79
2021/05/08 02:39:41;;;;;;;4.30;2.73;;;;;;;5.02;67.33;98595.30;127503;1104;114650;-79
2021/05/08 02:42:07;;;;;;;7.15;4.13;;;;;;;5.01;66.77;98590.24;127504;1105;115859;-79
2021/05/08 02:44:33;;;;;;;7.10;4.30;;;;;;;5.06;67.89;98596.37;127528;1104;115588;-79
2021/05/08 02:46:59;;;;;;;6.58;4.08;;;;;;;5.09;68.52;98593.17;128329;1104;22763;-79
2021/05/08 02:49:25;;;;;;;6.95;3.80;;;;;;;5.15;67.87;98594.78;127408;1105;115017;-79
2021/05/08 02:51:51;;;;;;;6.78;3.88;;;;;;;5.19;68.15;98589.71;127481;1104;116190;-79
2021/05/08 02:54:17;;;;;;;6.30;3.58;;;;;;;5.22;67.04;98589.15;127440;1105;115253;-79
2021/05/08 02:56:43;;;;;;;8.13;3.90;;;;;;;5.19;67.29;98584.38;127563;1104;115314;-79
2021/05/08 02:59:09;;;;;;;6.33;3.45;;;;;;;5.19;67.15;98589.71;128362;1104;22851;-79
2021/05/08 03:01:35;;;;;;;7.10;3.60;;;;;;;5.19;67.19;98603.06;127562;1104;114723;-79
2021/05/08 03:04:01;;;;;;;7.68;4.20;;;;;;;5.16;67.05;98603.59;127572;1100;115157;-79
2021/05/08 03:06:27;;;;;;;6.90;3.53;;;;;;;5.13;66.39;98596.91;127545;1104;115240;-79
2021/05/08 03:08:53;;;;;;;6.75;4.08;;;;;;;5.09;66.66;98595.84;127568;1104;115604;-79
2021/05/08 03:11:21;;;;;;;7.55;4.38;;;;;;;5.07;66.96;98602.50;128394;1104;22915;-79
2021/05/08 03:13:47;;;;;;;7.60;4.83;;;;;;;5.04;66.77;98595.05;128298;1104;22760;-79
2021/05/08 03:16:13;;;;;;;6.70;3.63;;;;;;;5.02;66.58;98610.52;127555;1104;114852;-79
2021/05/08 03:18:40;;;;;;;7.28;3.83;;;;;;;4.99;67.12;98614.54;127612;1104;115342;-79
2021/05/08 03:21:06;;;;;;;7.27;4.43;;;;;;;4.97;67.28;98618.53;127469;1105;116286;-79
2021/05/08 03:23:32;;;;;;;7.73;4.33;;;;;;;4.93;66.57;98619.05;127533;1104;115838;-79
2021/05/08 03:25:58;;;;;;;5.48;3.93;;;;;;;4.91;66.24;98615.87;128294;1105;22733;-79
2021/05/08 03:28:44;;;;;;;7.53;4.00;;;;;;;4.90;66.57;98616.11;127566;1104;115077;-79
2021/05/08 03:31:10;;;;;;;7.83;3.58;;;;;;;4.87;67.07;98622.80;127592;1104;114970;-79
2021/05/08 03:33:36;;;;;;;6.70;4.15;;;;;;;4.87;67.17;98614.80;127588;1104;115073;-79
2021/05/08 03:36:02;;;;;;;9.25;5.05;;;;;;;4.86;67.48;98613.17;127474;1100;115424;-79
2021/05/08 03:38:28;;;;;;;8.30;5.10;;;;;;;4.93;67.10;98613.72;127600;1105;115112;-79
2021/05/08 03:40:54;;;;;;;9.63;5.03;;;;;;;5.00;67.41;98615.34;128323;1104;22826;-79
2021/05/08 03:43:20;;;;;;;7.68;4.80;;;;;;;5.04;67.89;98614.53;127595;1104;114825;-79
2021/05/08 03:45:49;;;;;;;7.75;4.35;;;;;;;5.11;67.10;98622.28;127546;1104;115750;-79
2021/05/08 03:48:16;;;;;;;6.88;4.18;;;;;;;5.17;66.33;98626.53;127696;1098;115496;-79
2021/05/08 03:50:45;;;;;;;8.78;4.70;;;;;;;5.20;65.92;98634.02;127650;1104;115685;-79
2021/05/08 03:53:11;;;;;;;8.05;4.40;;;;;;;5.25;65.54;98625.99;128413;1104;22804;-79
2021/05/08 03:55:38;;;;;;;6.93;4.30;;;;;;;5.28;65.78;98633.47;127453;1105;116342;-79
2021/05/08 03:58:04;;;;;;;6.10;4.20;;;;;;;5.30;65.58;98628.66;127575;1104;114831;-79
2021/05/08 04:00:30;;;;;;;6.00;3.90;;;;;;;5.30;65.17;98627.85;127646;1104;115144;-79
2021/05/08 04:02:56;;;;;;;7.28;4.38;;;;;;;5.31;65.01;98627.61;127619;1104;115093;-79
2021/05/08 04:05:22;;;;;;;6.78;4.20;;;;;;;5.32;64.17;98639.88;127810;1100;115000;-79
2021/05/08 04:07:48;;;;;;;8.10;4.60;;;;;;;5.35;64.35;98643.89;128408;1104;22732;-79
2021/05/08 04:10:15;;;;;;;6.65;4.00;;;;;;;5.35;64.53;98647.36;127564;1104;115106;-79
2021/05/08 04:12:41;;;;;;;6.35;4.00;;;;;;;5.37;64.36;98647.08;127423;1099;116464;-78
2021/05/08 04:15:07;;;;;;;6.75;3.95;;;;;;;5.38;64.04;98660.18;127482;1104;115461;-79
2021/05/08 04:17:33;;;;;;;6.33;3.60;;;;;;;5.40;63.76;98658.02;127564;1105;115127;-79
2021/05/08 04:19:59;;;;;;;6.38;4.03;;;;;;;5.42;64.06;98660.41;128410;1104;22866;-79
2021/05/08 04:22:25;;;;;;;7.18;4.70;;;;;;;5.46;63.90;98666.82;127547;1104;115298;-79
2021/05/08 04:24:51;;;;;;;5.98;3.68;;;;;;;5.47;64.02;98667.65;127629;1099;116027;-79
2021/05/08 04:27:17;;;;;;;5.60;3.75;;;;;;;5.49;64.14;98666.30;127586;1104;115630;-79
2021/05/08 04:29:43;;;;;;;6.78;4.05;;;;;;;5.51;63.74;98671.38;127575;1104;115605;-79
2021/05/08 04:32:09;;;;;;;7.88;4.10;;;;;;;5.53;63.68;98669.23;128374;1104;22773;-79
2021/05/08 04:34:35;;;;;;;5.73;3.85;;;;;;;5.55;63.58;98683.93;127565;1104;115302;-79
2021/05/08 04:37:02;;;;;;;7.18;4.70;;;;;;;5.60;63.59;98691.92;127558;1104;115152;-79
2021/05/08 04:39:28;;;;;;;7.93;4.55;;;;;;;5.60;63.72;98689.26;127528;1099;115690;-79
2021/05/08 04:41:54;;;;;;;9.80;3.95;;;;;;;5.64;63.41;98681.51;127591;1104;115497;-79
2021/05/08 04:44:20;;;;;;;7.15;4.10;;;;;;;5.67;63.59;98686.32;128388;1104;22757;-79
2021/05/08 04:46:48;;;;;;;6.43;4.13;;;;;;;5.73;63.68;98692.44;127573;1104;116038;-80
2021/05/08 04:49:15;;;;;;;7.18;4.33;;;;;;;5.75;63.99;98699.13;127532;1104;115341;-79
2021/05/08 04:51:41;;;;;;;6.30;4.03;;;;;;;5.80;64.03;98698.31;127651;1104;115993;-79
2021/05/08 04:54:08;;;;;;;7.95;5.13;;;;;;;5.84;63.70;98702.05;127504;1105;115141;-79
2021/05/08 04:56:34;;;;;;;6.87;4.10;;;;;;;5.88;63.64;98706.58;127585;1104;115616;-79
2021/05/08 04:59:00;;;;;;;7.10;4.68;;;;;;;5.95;63.59;98706.34;128390;1104;22773;-79
2021/05/08 05:01:26;;;;;;;7.20;4.35;;;;;;;6.01;63.83;98710.62;127575;1104;115882;-79
2021/05/08 05:03:53;;;;;;;7.48;4.43;;;;;;;6.05;63.20;98719.70;127558;1104;114865;-79
2021/05/08 05:06:19;;;;;;;8.70;4.85;;;;;;;6.11;63.34;98715.92;127572;1104;115035;-80
2021/05/08 05:08:46;;;;;;;7.98;4.65;;;;;;;6.18;63.25;98728.22;127588;1104;115638;-80
2021/05/08 05:11:12;;;;;;;9.53;4.90;;;;;;;6.24;63.18;98727.91;128386;1104;22807;-80
2021/05/08 05:13:41;;;;;;;6.65;4.23;;;;;;;6.29;62.69;98717.22;127639;1098;115031;-80
2021/05/08 05:16:09;;;;;;;6.43;4.18;;;;;;;6.37;62.80;98739.93;127480;1104;115414;-80
2021/05/08 05:18:36;;;;;;;7.03;4.60;;;;;;;6.42;62.36;98734.56;127602;1104;115029;-79
2021/05/08 05:21:02;;;;;;;6.40;4.25;;;;;;;6.49;62.23;98737.75;127532;1104;115454;-79
2021/05/08 05:23:28;;;;;;;7.50;4.50;;;;;;;6.57;61.98;98741.73;127421;1104;115379;-79
2021/05/08 05:25:54;;;;;;;7.45;4.70;;;;;;;6.64;62.30;98744.89;128351;1104;22793;-79
2021/05/08 05:28:26;;;;;;;7.03;4.60;;;;;;;6.70;62.46;98743.80;127506;1105;115085;-79
2021/05/08 05:30:52;;;;;;;8.30;4.33;;;;;;;6.77;61.88;98743.52;127558;1104;115201;-78
2021/05/08 05:33:19;;;;;;;7.85;5.08;;;;;;;6.83;61.96;98755.78;127480;1104;115814;-77
2021/05/08 05:35:54;;;;;;;6.75;4.48;;;;;;;6.91;61.61;98754.41;127564;1105;114947;-78
2021/05/08 05:38:24;;;;;;;11.65;4.70;;;;;;;6.97;61.26;98764.83;128288;1099;25887;-78
2021/05/08 05:40:53;;;;;;;8.23;4.60;;;;;;;7.05;61.54;98776.84;128353;1105;22814;-78
2021/05/08 05:43:20;;;;;;;7.68;4.83;;;;;;;7.12;60.47;98764.75;127580;1104;114958;-78
2021/05/08 05:45:46;;;;;;;6.80;4.57;;;;;;;7.19;61.42;98768.98;127519;1105;115995;-78
2021/05/08 05:48:12;;;;;;;7.80;4.68;;;;;;;7.28;60.68;98764.66;127612;1104;114662;-78
2021/05/08 05:50:42;;;;;;;7.48;4.55;;;;;;;7.36;60.72;98764.06;127571;1104;115222;-78
2021/05/08 05:53:08;;;;;;;7.28;4.65;;;;;;;7.43;60.36;98777.95;128283;1104;22802;-78
2021/05/08 05:55:34;;;;;;;8.38;4.65;;;;;;;7.52;60.35;98786.20;127455;1104;114286;-78
2021/05/08 05:58:01;;;;;;;6.83;4.25;;;;;;;7.62;60.46;98783.42;127521;1104;115039;-77
2021/05/08 06:00:28;;;;;;;7.40;4.63;;;;;;;7.72;59.70;98791.40;127452;1104;114940;-78
2021/05/08 06:02:54;;;;;;;6.65;4.25;;;;;;;7.80;60.17;98788.12;127530;1104;115517;-78
2021/05/08 06:05:21;;;;;;;8.40;4.60;;;;;;;7.91;60.01;98794.20;128348;1104;22759;-78
2021/05/08 06:07:46;;;;;;;7.85;5.00;;;;;;;8.00;59.67;98797.87;127592;1104;114867;-78
2021/05/08 06:10:14;;;;;;;7.35;4.20;;;;;;;8.09;59.57;98803.42;127504;1104;115232;-78
2021/05/08 06:12:40;;;;;;;7.68;4.53;;;;;;;8.20;59.24;98796.08;127491;1104;115149;-78
2021/05/08 06:15:09;;;;;;;6.00;3.93;;;;;;;8.25;58.51;98796.03;127486;1105;115981;-78
2021/05/08 06:17:36;;;;;;;5.80;3.97;;;;;;;8.34;58.44;98797.03;127574;1104;116115;-79
2021/05/08 06:20:05;;;;;;;7.60;4.35;;;;;;;8.39;57.76;98797.00;128255;1107;22758;-79
2021/05/08 06:22:31;;;;;;;7.23;4.48;;;;;;;8.41;57.44;98804.75;127498;1105;115992;-79
2021/05/08 06:24:57;;;;;;;6.43;3.80;;;;;;;8.46;57.41;98808.20;127647;1104;114749;-79
2021/05/08 06:27:23;;;;;;;6.35;4.25;;;;;;;8.51;56.58;98802.77;127588;1104;115356;-78
2021/05/08 06:29:50;;;;;;;6.45;3.50;;;;;;;8.54;55.78;98806.78;127590;1104;114945;-79
2021/05/08 06:32:17;;;;;;;7.65;4.45;;;;;;;8.60;56.61;98817.16;128297;1105;22752;-79
2021/05/08 06:34:43;;;;;;;6.77;3.90;;;;;;;8.70;56.33;98802.05;127490;1104;114997;-79
2021/05/08 06:37:09;;;;;;;6.80;4.03;;;;;;;8.79;56.66;98816.42;127630;1104;115486;-79
2021/05/08 06:39:35;;;;;;;6.08;3.95;;;;;;;8.90;56.02;98809.05;127414;1107;115514;-79
2021/05/08 06:42:01;;;;;;;5.33;3.58;;;;;;;8.95;55.03;98808.98;127443;1104;115918;-79
2021/05/08 06:44:28;;;;;;;7.63;3.98;;;;;;;9.02;55.14;98804.86;127555;1104;115330;-78
2021/05/08 06:46:57;;;;;;;6.40;4.25;;;;;;;9.08;54.86;98806.41;128151;1104;22802;-78
2021/05/08 06:49:24;;;;;;;5.40;3.68;;;;;;;9.17;54.93;98813.82;127539;1104;115157;-78
2021/05/08 06:51:50;;;;;;;7.35;4.08;;;;;;;9.29;55.47;98808.82;127911;1104;115844;-78
2021/05/08 06:54:16;;;;;;;6.38;3.60;;;;;;;9.42;55.12;98810.77;127267;1105;114891;-78
2021/05/08 06:56:43;;;;;;;6.60;3.85;;;;;;;9.54;54.68;98813.02;127630;1104;115701;-78
2021/05/08 06:59:10;;;;;;;4.98;3.45;;;;;;;9.65;54.22;98808.30;128394;1100;22772;-79
2021/05/08 07:01:36;;;;;;;7.25;3.90;;;;;;;9.73;53.80;98804.95;127392;1104;115258;-79
2021/05/08 07:04:02;;;;;;;6.15;3.68;;;;;;;9.76;53.31;98818.61;127460;1099;114912;-79
2021/05/08 07:06:28;;;;;;;5.40;3.75;;;;;;;9.83;53.06;98823.63;127890;1104;115519;-77
2021/05/08 07:08:54;;;;;;;6.13;3.90;;;;;;;9.90;52.88;98821.34;127713;1104;115771;-78
2021/05/08 07:11:21;;;;;;;5.23;3.65;;;;;;;9.97;52.17;98819.08;128484;1104;22921;-78
2021/05/08 07:13:48;;;;;;;6.30;3.73;;;;;;;10.06;52.19;98820.02;128509;1104;22821;-79
2021/05/08 07:16:14;;;;;;;6.28;3.73;;;;;;;10.16;51.75;98816.34;127675;1104;115161;-79
2021/05/08 07:18:40;;;;;;;6.20;3.50;;;;;;;10.20;51.51;98817.36;127590;1105;116280;-78
2021/05/08 07:21:06;;;;;;;6.98;3.28;;;;;;;10.29;51.49;98812.91;127636;1106;115283;-79
2021/05/08 07:23:32;;;;;;;5.38;3.60;;;;;;;10.41;51.11;98819.71;127555;1105;116054;-79
2021/05/08 07:25:58;;;;;;;6.40;3.58;;;;;;;10.46;50.70;98828.52;128369;1105;22925;-78
2021/05/08 07:28:25;;;;;;;4.95;3.75;;;;;;;10.53;51.29;98826.23;127598;1105;115412;-79
2021/05/08 07:30:53;;;;;;;5.18;3.38;;;;;;;10.60;49.62;98819.64;127654;1100;116123;-78
2021/05/08 07:33:21;;;;;;;5.13;3.83;;;;;;;10.61;50.57;98824.75;127659;1105;115800;-79
2021/05/08 07:35:48;;;;;;;5.10;3.20;;;;;;;10.68;50.96;98819.74;127712;1099;116484;-78
2021/05/08 07:38:16;;;;;;;6.35;3.90;;;;;;;10.77;49.28;98830.64;128472;1104;22742;-79
2021/05/08 07:40:42;;;;;;;5.65;3.53;;;;;;;10.84;49.42;98833.71;127704;1100;115604;-78
2021/05/08 07:43:10;;;;;;;5.08;2.95;;;;;;;10.90;47.48;98845.20;127527;1104;115463;-78
2021/05/08 07:45:38;;;;;;;5.38;3.15;;;;;;;10.89;47.67;98841.71;127514;1104;115648;-78
2021/05/08 07:48:05;;;;;;;4.78;3.15;;;;;;;10.94;47.92;98843.50;127601;1105;115706;-79
2021/05/08 07:50:31;;;;;;;6.20;3.53;;;;;;;11.04;48.34;98845.98;127523;1106;115992;-79
2021/05/08 07:52:58;;;;;;;5.15;3.48;;;;;;;11.14;47.94;98843.09;128209;1100;22758;-79
2021/05/08 07:55:25;;;;;;;4.67;3.30;;;;;;;11.24;47.78;98842.89;127662;1104;114964;-79
2021/05/08 07:57:51;;;;;;;3.10;2.38;;;;;;;11.30;46.64;98844.36;127512;1099;115393;-79
2021/05/08 08:00:20;;;;;;;5.60;3.20;;;;;;;11.37;47.67;98843.95;127599;1104;115635;-79
2021/05/08 08:02:46;;;;;;;5.73;3.48;;;;;;;11.48;47.63;98847.23;127693;1104;115716;-79
2021/05/08 08:05:12;;;;;;;5.73;2.93;;;;;;;11.56;47.42;98846.52;128376;1104;22760;-79
2021/05/08 08:07:39;;;;;;;5.43;3.58;;;;;;;11.65;47.68;98849.28;127597;1104;115289;-79
2021/05/08 08:10:07;;;;;;;6.53;3.00;;;;;;;11.69;46.61;98848.37;127607;1104;115687;-79
2021/05/08 08:12:34;;;;;;;4.60;3.20;;;;;;;11.75;46.24;98865.22;127505;1104;115354;-79
2021/05/08 08:15:00;;;;;;;6.75;3.20;;;;;;;11.83;46.30;98859.16;127564;1104;116023;-79
2021/05/08 08:17:28;;;;;;;4.50;3.08;;;;;;;11.90;45.38;98864.11;127579;1104;115185;-79
2021/05/08 08:19:54;;;;;;;6.55;3.55;;;;;;;11.97;45.62;98865.28;128330;1104;22760;-79
2021/05/08 08:22:21;;;;;;;5.08;3.05;;;;;;;12.04;46.50;98865.66;127458;1105;115100;-79
2021/05/08 08:24:47;;;;;;;6.18;3.85;;;;;;;12.13;44.98;98875.72;127581;1104;116003;-79
2021/05/08 08:27:13;;;;;;;7.10;4.15;;;;;;;12.15;46.30;98863.52;127429;1107;115669;-78
2021/05/08 08:29:39;;;;;;;8.47;4.27;;;;;;;12.24;46.66;98868.97;127595;1104;115488;-79
2021/05/08 08:32:07;;;;;;;6.55;3.50;;;;;;;12.33;46.56;98877.13;128446;1104;22788;-79
2021/05/08 08:34:33;;;;;;;9.20;4.88;;;;;;;12.38;45.11;98877.81;127578;1105;116585;-79
2021/05/08 08:36:59;;;;;;;6.60;3.83;;;;;;;12.43;45.75;98880.38;127575;1100;116257;-79
2021/05/08 08:39:26;;;;;;;5.48;3.08;;;;;;;12.50;44.66;98871.84;127565;1100;114934;-79
2021/05/08 08:41:53;;;;;;;6.10;3.40;;;;;;;12.57;43.48;98874.88;127580;1107;115573;-79
2021/05/08 08:44:19;;;;;;;4.85;3.30;;;;;;;12.65;45.04;98871.42;128450;1105;22763;-79
2021/05/08 08:46:46;;;;;;;6.43;4.03;;;;;;;12.72;44.20;98869.08;127551;1100;115707;-79
2021/05/08 08:49:14;;;;;;;7.13;4.70;;;;;;;12.66;44.33;98878.44;127652;1107;115506;-79
2021/05/08 08:51:42;;;;;;;5.70;4.15;;;;;;;12.64;43.36;98877.94;127627;1105;115920;-80
2021/05/08 08:54:09;;;;;;;5.48;3.70;;;;;;;12.62;44.73;98871.27;127549;1104;115473;-79
2021/05/08 08:56:44;;;;;;;11.00;4.75;;;;;;;12.69;44.84;98871.59;127691;1104;115361;-78
2021/05/08 08:59:20;;;;;;;6.38;4.33;;;;;;;12.78;45.00;98875.16;128311;1105;22797;-79
2021/05/08 09:01:47;;;;;;;6.75;3.75;;;;;;;12.82;44.88;98876.13;127595;1100;114947;-79
2021/05/08 09:04:14;;;;;;;6.05;4.10;;;;;;;12.90;44.15;98869.17;127569;1104;116093;-79
2021/05/08 09:06:42;;;;;;;7.30;4.48;;;;;;;12.96;44.16;98876.01;127526;1105;115211;-80
2021/05/08 09:09:10;;;;;;;6.73;4.60;;;;;;;12.94;43.86;98887.14;127619;1104;115872;-80
2021/05/08 09:11:56;;;;;;;6.35;4.10;;;;;;;13.05;44.62;98884.14;127705;1104;115184;-80
2021/05/08 09:14:27;;;;;;;5.70;3.70;;;;;;;13.06;43.10;98880.36;128372;1104;22786;-80
2021/05/08 09:17:14;;;;;;;5.68;3.48;;;;;;;13.16;44.08;98877.34;128500;1104;22817;-79
2021/05/08 09:19:42;;;;;;;4.83;3.45;;;;;;;13.22;43.53;98876.11;127611;1104;115579;-79
2021/05/08 09:22:31;;;;;;;6.10;3.58;;;;;;;13.29;42.49;98889.20;127724;1104;115471;-78
2021/05/08 09:25:15;;;;;;;5.98;3.93;;;;;;;13.42;43.39;98888.28;127695;1104;114735;-78
2021/05/08 09:27:51;;;;;;;5.25;3.85;;;;;;;13.54;42.36;98876.84;127671;1099;115809;-78
2021/05/08 09:30:28;;;;;;;4.65;3.15;;;;;;;13.61;41.01;98877.17;127722;1104;115000;-79
2021/05/08 09:32:58;;;;;;;4.00;3.00;;;;;;;13.72;40.89;98886.58;127728;1104;115341;-79
2021/05/08 09:35:29;;;;;;;4.80;3.40;;;;;;;13.70;40.51;98889.59;127646;1104;115137;-77
2021/05/08 09:38:10;;;;;;;4.48;3.05;;;;;;;13.75;38.30;98889.45;128514;1100;27431;-79
2021/05/08 09:40:38;;;;;;;4.90;3.30;;;;;;;13.74;40.14;98876.22;127644;1104;115745;-79
2021/05/08 09:43:13;;;;;;;6.05;3.10;;;;;;;13.77;39.79;98891.83;127418;1105;115447;-79
2021/05/08 09:45:42;;;;;;;4.85;2.90;;;;;;;13.94;39.84;98878.30;127675;1104;115994;-78
2021/05/08 09:48:28;;;;;;;6.20;3.30;;;;;;;14.15;39.48;98888.50;127487;1105;116090;-79
2021/05/08 09:51:15;;;;;;;5.60;3.55;;;;;;;14.33;38.88;98876.51;127496;1104;115286;-78
2021/05/08 09:53:41;;;;;;;5.28;3.53;;;;;;;14.48;38.14;98888.76;127409;1104;115851;-78
2021/05/08 09:56:40;;;;;;;6.80;3.40;;;;;;;14.56;39.33;98882.55;128186;1104;22735;-78
2021/05/08 09:59:25;;;;;;;4.83;3.30;;;;;;;14.62;39.73;98889.41;128524;1104;22811;-79
2021/05/08 10:02:12;;;;;;;5.05;3.25;;;;;;;14.68;39.29;98873.75;128533;1104;22818;-79
2021/05/08 10:04:46;;;;;;;5.85;3.48;;;;;;;14.87;39.47;98867.95;127521;1099;114832;-77
2021/05/08 10:07:15;;;;;;;5.25;3.38;;;;;;;15.02;38.80;98888.31;127662;1104;116132;-78
2021/05/08 10:09:53;;;;;;;4.80;3.30;;;;;;;15.07;39.00;98872.64;127245;1105;115345;-78
2021/05/08 10:12:24;;;;;;;7.85;4.40;;;;;;;14.91;36.90;98871.59;127392;1105;114759;-78
2021/05/08 10:14:54;;;;;;;4.88;3.18;;;;;;;14.91;38.16;98863.47;127307;1104;115968;-78
2021/05/08 10:17:22;;;;;;;5.60;2.93;;;;;;;14.87;37.02;98866.03;128049;1104;22757;-77
2021/05/08 10:19:50;;;;;;;4.90;3.23;;;;;;;15.01;37.63;98868.51;128225;1104;22732;-78
2021/05/08 10:22:17;;;;;;;4.93;3.08;;;;;;;15.21;37.65;98864.29;127379;1104;115153;-77
2021/05/08 10:24:46;;;;;;;4.80;2.95;;;;;;;15.37;36.54;98856.38;127361;1105;115755;-78
2021/05/08 10:27:13;;;;;;;4.13;2.80;;;;;;;15.45;35.47;98856.31;127249;1104;116216;-80
2021/05/08 10:29:42;;;;;;;3.88;2.53;;;;;;;15.51;35.28;98858.83;127315;1105;116307;-79
2021/05/08 10:32:15;;;;;;;4.45;2.58;;;;;;;15.52;33.73;98849.55;128518;1104;22750;-79
2021/05/08 10:34:59;;;;;;;7.05;3.10;;;;;;;15.54;34.39;98856.25;127576;1104;114968;-79
2021/05/08 10:37:26;;;;;;;3.45;2.50;;;;;;;15.59;32.15;98849.83;127566;1099;116744;-79
2021/05/08 10:40:16;;;;;;;4.00;2.30;;;;;;;15.62;32.67;98854.60;127503;1104;115950;-78
2021/05/08 10:42:48;;;;;;;4.83;3.20;;;;;;;15.77;33.22;98856.75;128061;1105;115435;-78
2021/05/08 10:45:20;;;;;;;4.27;2.70;;;;;;;15.85;32.18;98844.23;127745;1100;115937;-79
2021/05/08 10:48:07;;;;;;;4.53;2.65;;;;;;;15.82;31.36;98853.05;127711;1104;115855;-78
2021/05/08 10:50:47;;;;;;;5.18;3.18;;;;;;;15.73;32.97;98858.55;127646;1104;115471;-79
2021/05/08 10:53:18;;;;;;;5.28;3.30;;;;;;;15.89;33.31;98856.02;128392;1104;22756;-79
2021/05/08 10:55:57;;;;;;;4.70;3.13;;;;;;;16.02;33.23;98851.44;127702;1104;115233;-79
2021/05/08 10:58:23;;;;;;;5.25;2.95;;;;;;;15.99;33.01;98857.52;127674;1104;116625;-79
2021/05/08 11:00:55;;;;;;;4.43;3.13;;;;;;;16.07;33.00;98851.22;127564;1104;113698;-79
2021/05/08 11:03:42;;;;;;;6.15;3.68;;;;;;;16.18;33.00;98852.39;127529;1104;115424;-80
2021/05/08 11:06:17;;;;;;;5.23;3.33;;;;;;;16.49;33.44;98845.70;127473;1104;115192;-78
2021/05/08 11:08:50;;;;;;;4.40;2.77;;;;;;;16.72;32.94;98856.95;127563;1104;115541;-80
2021/05/08 11:11:25;;;;;;;5.23;3.20;;;;;;;16.96;32.45;98842.61;128419;1105;22770;-79
2021/05/08 11:13:55;;;;;;;4.25;2.70;;;;;;;17.22;32.20;98847.72;128282;1104;22736;-80
2021/05/08 11:16:29;;;;;;;4.58;2.85;;;;;;;17.43;29.47;98835.54;127625;1104;115177;-80
2021/05/08 11:19:01;;;;;;;4.15;2.80;;;;;;;17.46;29.59;98844.96;127557;1104;115862;-79
2021/05/08 11:21:39;;;;;;;4.75;2.80;;;;;;;17.43;29.21;98849.16;127534;1105;115888;-80
2021/05/08 11:24:09;;;;;;;3.58;2.70;;;;;;;17.53;29.81;98849.84;127574;1100;116058;-79
2021/05/08 11:26:43;;;;;;;3.47;2.50;;;;;;;17.81;30.22;98839.80;127629;1104;116054;-80
2021/05/08 11:29:17;;;;;;;3.18;2.48;;;;;;;18.20;30.48;98840.10;128324;1105;22881;-79
2021/05/08 11:31:55;;;;;;;5.08;2.88;;;;;;;18.39;29.19;98826.59;127622;1104;115214;-78